createdAt,value
2023-04-02T00:00:24.237Z,95969.69
2023-04-02T00:03:42.246Z,95988.13
2023-04-02T00:06:47.549Z,95969.94
2023-04-02T00:09:52.445Z,95988.50
2023-04-02T00:13:17.593Z,95998.25
2023-04-02T00:16:25.260Z,95996.88
2023-04-02T00:19:37.764Z,95990.16
2023-04-02T00:22:44.998Z,95966.78
2023-04-02T00:25:49.798Z,95961.50
2023-04-02T00:28:55.103Z,95996.06
2023-04-02T00:31:59.983Z,95997.09
2023-04-02T00:35:18.215Z,95993.19
2023-04-02T00:38:27.461Z,96001.22
2023-04-02T00:41:35.980Z,95992.13
2023-04-02T00:44:43.874Z,95999.59
2023-04-02T00:47:48.562Z,95970.81
2023-04-02T00:50:54.883Z,96002.13
2023-04-02T00:54:04.547Z,95993.91
2023-04-02T00:57:17.784Z,95993.44
2023-04-02T01:00:33.408Z,96001.53
2023-04-02T01:03:39.115Z,95999.59
2023-04-02T01:06:43.975Z,95976.88
2023-04-02T01:10:33.410Z,96003.41
2023-04-02T01:13:41.733Z,95998.66
2023-04-02T01:17:01.195Z,96000.28
2023-04-02T01:20:15.161Z,96000.03
2023-04-02T01:23:39.477Z,96003.13
2023-04-02T01:26:52.676Z,96008.44
2023-04-02T01:30:01.594Z,96013.41
2023-04-02T01:33:06.907Z,95999.41
2023-04-02T01:36:30.254Z,96012.69
2023-04-02T01:39:51.209Z,96001.19
2023-04-02T01:43:17.389Z,96018.34
2023-04-02T01:46:33.775Z,96013.31
2023-04-02T01:49:40.182Z,96013.81
2023-04-02T01:52:47.985Z,95988.56
2023-04-02T01:55:57.916Z,96018.88
2023-04-02T01:59:05.854Z,96018.88
2023-04-02T02:02:14.336Z,95996.03
2023-04-02T02:05:25.844Z,96005.72
2023-04-02T02:08:39.346Z,96015.69
2023-04-02T02:11:46.492Z,96029.31
2023-04-02T02:14:52.280Z,96028.91
2023-04-02T02:18:06.873Z,96030.69
2023-04-02T02:21:23.903Z,96034.81
2023-04-02T02:24:33.487Z,96028.47
2023-04-02T02:27:51.030Z,96030.50
2023-04-02T02:31:02.705Z,96026.16
2023-04-02T02:34:18.520Z,96015.63
2023-04-02T02:37:29.905Z,96010.06
2023-04-02T02:40:43.210Z,96033.63
2023-04-02T02:44:00.119Z,96036.91
2023-04-02T02:47:14.242Z,96050.13
2023-04-02T02:50:31.586Z,96058.56
2023-04-02T02:53:49.078Z,96046.56
2023-04-02T02:56:59.054Z,96048.69
2023-04-02T03:00:06.985Z,96042.13
2023-04-02T03:03:17.210Z,96066.38
2023-04-02T03:06:22.390Z,96062.72
2023-04-02T03:09:36.155Z,96067.69
2023-04-02T03:12:52.877Z,96066.56
2023-04-02T03:16:04.300Z,96078.94
2023-04-02T03:19:28.242Z,96084.00
2023-04-02T03:22:41.599Z,96083.44
2023-04-02T03:26:09.399Z,96064.56
2023-04-02T03:29:18.443Z,96084.91
2023-04-02T03:32:29.241Z,96087.19
2023-04-02T03:35:47.396Z,96089.22
2023-04-02T03:39:37.051Z,96092.63
2023-04-02T03:42:50.856Z,96093.31
2023-04-02T03:46:07.239Z,96100.53
2023-04-02T03:49:31.289Z,96097.06
2023-04-02T03:52:38.307Z,96097.56
2023-04-02T03:55:47.106Z,96102.59
2023-04-02T03:59:34.816Z,96102.25
2023-04-02T04:02:48.349Z,96114.22
2023-04-02T04:06:06.512Z,96082.81
2023-04-02T04:09:23.300Z,96114.94
2023-04-02T04:12:43.663Z,96114.91
2023-04-02T04:16:02.812Z,96117.06
2023-04-02T04:19:14.149Z,96116.66
2023-04-02T04:22:30.025Z,96089.13
2023-04-02T04:25:40.330Z,96091.84
2023-04-02T04:28:57.223Z,96138.44
2023-04-02T04:32:16.604Z,96139.31
2023-04-02T04:35:34.310Z,96143.75
2023-04-02T04:38:55.126Z,96148.72
2023-04-02T04:42:02.971Z,96152.81
2023-04-02T04:45:20.909Z,96158.66
2023-04-02T04:48:48.546Z,96153.19
2023-04-02T04:51:58.936Z,96161.31
2023-04-02T04:55:21.548Z,96149.28
2023-04-02T04:58:48.009Z,96170.06
2023-04-02T05:01:55.841Z,96174.22
2023-04-02T05:05:02.485Z,96176.06
2023-04-02T05:08:22.574Z,96173.72
2023-04-02T05:11:45.024Z,96155.19
2023-04-02T05:14:58.182Z,96187.78
2023-04-02T05:18:30.582Z,96182.66
2023-04-02T05:21:43.615Z,96149.81
2023-04-02T05:25:15.683Z,96191.25
2023-04-02T05:28:36.720Z,96188.63
2023-04-02T05:31:49.719Z,96170.06
2023-04-02T05:34:57.093Z,96187.66
2023-04-02T05:38:03.019Z,96199.38
2023-04-02T05:41:31.441Z,96201.56
2023-04-02T05:44:56.310Z,96213.94
2023-04-02T05:48:06.280Z,96189.28
2023-04-02T05:51:22.091Z,96181.06
2023-04-02T05:54:39.884Z,96212.50
2023-04-02T05:58:07.419Z,96215.03
2023-04-02T06:01:35.193Z,96227.22
2023-04-02T06:05:06.870Z,96189.25
2023-04-02T06:08:24.137Z,96232.13
2023-04-02T06:11:33.187Z,96235.31
2023-04-02T06:14:39.955Z,96209.13
2023-04-02T06:17:48.558Z,96219.19
2023-04-02T06:20:53.763Z,96226.41
2023-04-02T06:24:03.396Z,96214.97
2023-04-02T06:27:14.181Z,96216.16
2023-04-02T06:30:25.426Z,96235.56
2023-04-02T06:33:30.672Z,96246.78
2023-04-02T06:36:35.642Z,96253.53
2023-04-02T06:39:44.451Z,96264.31
2023-04-02T06:42:59.575Z,96262.53
2023-04-02T06:46:19.341Z,96279.00
2023-04-02T06:49:48.532Z,96279.38
2023-04-02T06:52:57.260Z,96281.38
2023-04-02T06:56:28.150Z,96288.34
2023-04-02T06:59:32.947Z,96261.66
2023-04-02T07:02:40.340Z,96300.88
2023-04-02T07:05:47.589Z,96297.19
2023-04-02T07:08:52.522Z,96295.75
2023-04-02T07:11:58.385Z,96309.44
2023-04-02T07:15:04.334Z,96303.44
2023-04-02T07:18:34.705Z,96302.03
2023-04-02T07:21:42.640Z,96292.94
2023-04-02T07:24:47.322Z,96303.41
2023-04-02T07:27:53.021Z,96306.34
2023-04-02T07:30:57.677Z,96312.69
2023-04-02T07:34:02.243Z,96317.63
2023-04-02T07:37:07.244Z,96310.44
2023-04-02T07:40:18.342Z,96323.66
2023-04-02T07:43:23.185Z,96324.31
2023-04-02T07:46:27.818Z,96324.78
2023-04-02T07:49:32.339Z,96335.41
2023-04-02T07:52:43.782Z,96325.22
2023-04-02T07:55:52.701Z,96327.97
2023-04-02T07:58:57.682Z,96347.81
2023-04-02T08:02:02.752Z,96353.00
2023-04-02T08:05:07.792Z,96338.81
2023-04-02T08:08:12.299Z,96359.19
2023-04-02T08:11:17.461Z,96348.66
2023-04-02T08:14:22.012Z,96351.84
2023-04-02T08:17:31.284Z,96357.44
2023-04-02T08:20:36.070Z,96363.53
2023-04-02T08:23:40.903Z,96364.91
2023-04-02T08:26:46.661Z,96354.09
2023-04-02T08:29:51.385Z,96376.25
2023-04-02T08:32:55.979Z,96369.75
2023-04-02T08:36:00.940Z,96362.56
2023-04-02T08:39:11.068Z,96376.66
2023-04-02T08:42:21.524Z,96375.38
2023-04-02T08:45:52.179Z,96381.19
2023-04-02T08:49:00.597Z,96382.06
2023-04-02T08:52:05.408Z,96383.13
2023-04-02T08:55:25.994Z,96394.13
2023-04-02T08:58:38.623Z,96394.59
2023-04-02T09:01:58.798Z,96399.28
2023-04-02T09:05:08.031Z,96408.63
2023-04-02T09:08:22.205Z,96370.72
2023-04-02T09:11:44.198Z,96402.34
2023-04-02T09:15:11.852Z,96391.72
2023-04-02T09:18:18.197Z,96401.75
2023-04-02T09:21:31.917Z,96407.47
2023-04-02T09:24:37.750Z,96419.75
2023-04-02T09:27:42.417Z,96385.97
2023-04-02T09:30:58.269Z,96425.16
2023-04-02T09:34:30.597Z,96418.13
2023-04-02T09:37:37.274Z,96391.59
2023-04-02T09:40:48.195Z,96393.47
2023-04-02T09:44:21.633Z,96433.97
2023-04-02T09:47:27.273Z,96431.81
2023-04-02T09:50:34.052Z,96432.84
2023-04-02T09:53:42.560Z,96445.03
2023-04-02T09:57:06.479Z,96418.25
2023-04-02T10:00:29.821Z,96446.88
2023-04-02T10:03:36.621Z,96453.47
2023-04-02T10:06:49.837Z,96458.16
2023-04-02T10:10:16.858Z,96462.59
2023-04-02T10:13:36.478Z,96464.19
2023-04-02T10:16:51.793Z,96460.72
2023-04-02T10:20:02.526Z,96417.81
2023-04-02T10:23:15.474Z,96455.63
2023-04-02T10:26:33.034Z,96465.84
2023-04-02T10:30:02.584Z,96469.59
2023-04-02T10:33:20.030Z,96440.88
2023-04-02T10:36:24.631Z,96469.03
2023-04-02T10:39:47.427Z,96444.78
2023-04-02T10:43:26.990Z,96447.91
2023-04-02T10:46:53.650Z,96471.84
2023-04-02T10:50:26.202Z,96478.09
2023-04-02T10:53:52.732Z,96483.38
2023-04-02T10:57:26.603Z,96486.31
2023-04-02T11:00:37.109Z,96463.47
2023-04-02T11:03:54.894Z,96493.13
2023-04-02T11:07:13.760Z,96492.69
2023-04-02T11:10:21.025Z,96499.47
2023-04-02T11:13:42.604Z,96462.84
2023-04-02T11:16:50.121Z,96469.13
2023-04-02T11:19:56.063Z,96494.06
2023-04-02T11:23:11.418Z,96483.31
2023-04-02T11:26:37.442Z,96498.28
2023-04-02T11:29:51.774Z,96503.28
2023-04-02T11:33:38.152Z,96508.63
2023-04-02T11:36:50.676Z,96506.00
2023-04-02T11:39:58.399Z,96510.91
2023-04-02T11:43:34.219Z,96517.47
2023-04-02T11:46:41.238Z,96516.13
2023-04-02T11:49:54.912Z,96515.66
2023-04-02T11:53:04.141Z,96480.09
2023-04-02T11:56:16.903Z,96520.00
2023-04-02T11:59:51.194Z,96524.69
2023-04-02T12:03:33.202Z,96523.84
2023-04-02T12:06:46.735Z,96528.63
2023-04-02T12:09:55.474Z,96529.72
2023-04-02T12:13:00.222Z,96530.72
2023-04-02T12:16:06.570Z,96529.91
2023-04-02T12:19:16.580Z,96521.25
2023-04-02T12:22:46.037Z,96541.44
2023-04-02T12:26:37.033Z,96536.44
2023-04-02T12:29:41.797Z,96524.78
2023-04-02T12:32:46.708Z,96552.06
2023-04-02T12:35:57.589Z,96548.69
2023-04-02T12:39:02.232Z,96548.25
2023-04-02T12:42:26.148Z,96556.59
2023-04-02T12:45:33.511Z,96544.25
2023-04-02T12:48:39.470Z,96569.53
2023-04-02T12:51:44.342Z,96570.34
2023-04-02T12:54:54.611Z,96547.72
2023-04-02T12:58:00.011Z,96570.50
2023-04-02T13:01:11.816Z,96580.31
2023-04-02T13:04:16.613Z,96584.13
2023-04-02T13:07:25.228Z,96591.16
2023-04-02T13:10:30.006Z,96567.88
2023-04-02T13:13:35.893Z,96595.59
2023-04-02T13:16:40.949Z,96603.88
2023-04-02T13:19:45.772Z,96607.38
2023-04-02T13:22:50.367Z,96612.06
2023-04-02T13:26:18.146Z,96614.44
2023-04-02T13:29:24.276Z,96614.50
2023-04-02T13:32:30.941Z,96614.94
2023-04-02T13:35:35.602Z,96620.56
2023-04-02T13:38:40.417Z,96593.84
2023-04-02T13:42:04.466Z,96619.44
2023-04-02T13:45:37.439Z,96624.00
2023-04-02T13:48:42.342Z,96628.03
2023-04-02T13:51:52.699Z,96602.22
2023-04-02T13:55:01.272Z,96615.03
2023-04-02T13:58:06.102Z,96633.72
2023-04-02T14:01:10.686Z,96625.16
2023-04-02T14:04:22.021Z,96620.19
2023-04-02T14:07:36.484Z,96653.44
2023-04-02T14:11:03.152Z,96661.66
2023-04-02T14:14:46.635Z,96664.91
2023-04-02T14:17:58.834Z,96667.22
2023-04-02T14:21:14.564Z,96671.38
2023-04-02T14:24:37.316Z,96673.16
2023-04-02T14:28:23.564Z,96671.91
2023-04-02T14:31:47.094Z,96673.72
2023-04-02T14:35:13.999Z,96650.53
2023-04-02T14:38:21.378Z,96687.38
2023-04-02T14:41:34.793Z,96683.09
2023-04-02T14:44:46.722Z,96698.53
2023-04-02T14:48:05.191Z,96695.31
2023-04-02T14:51:24.886Z,96703.09
2023-04-02T14:54:39.054Z,96705.72
2023-04-02T14:57:51.855Z,96709.28
2023-04-02T15:01:24.952Z,96713.56
2023-04-02T15:04:34.977Z,96726.88
2023-04-02T15:07:45.389Z,96725.28
2023-04-02T15:11:02.969Z,96737.47
2023-04-02T15:14:20.224Z,96724.28
2023-04-02T15:17:25.253Z,96720.09
2023-04-02T15:20:39.806Z,96743.66
2023-04-02T15:23:59.858Z,96752.03
2023-04-02T15:27:25.618Z,96759.47
2023-04-02T15:30:37.157Z,96770.88
2023-04-02T15:33:44.568Z,96779.63
2023-04-02T15:37:15.782Z,96780.88
2023-04-02T15:40:33.467Z,96779.22
2023-04-02T15:43:54.604Z,96783.63
2023-04-02T15:47:18.810Z,96777.59
2023-04-02T15:50:42.780Z,96805.75
2023-04-02T15:53:56.231Z,96802.94
2023-04-02T15:57:09.627Z,96812.56
2023-04-02T16:00:26.423Z,96782.41
2023-04-02T16:04:11.388Z,96826.25
2023-04-02T16:07:24.048Z,96827.75
2023-04-02T16:10:42.906Z,96822.44
2023-04-02T16:13:47.870Z,96819.44
2023-04-02T16:16:55.945Z,96827.16
2023-04-02T16:20:31.666Z,96858.31
2023-04-02T16:23:38.704Z,96838.25
2023-04-02T16:26:58.893Z,96885.56
2023-04-02T16:30:38.627Z,96892.63
2023-04-02T16:34:18.597Z,96864.66
2023-04-02T16:37:40.871Z,96901.56
2023-04-02T16:41:21.820Z,96907.53
2023-04-02T16:44:44.135Z,96897.06
2023-04-02T16:48:13.178Z,96909.19
2023-04-02T16:51:27.957Z,96893.19
2023-04-02T16:54:45.846Z,96920.59
2023-04-02T16:58:02.144Z,96934.34
2023-04-02T17:01:28.232Z,96935.78
2023-04-02T17:04:47.844Z,96939.34
2023-04-02T17:08:09.056Z,96949.13
2023-04-02T17:11:24.081Z,96947.63
2023-04-02T17:14:42.571Z,96941.81
2023-04-02T17:17:47.419Z,96929.91
2023-04-02T17:20:52.415Z,96928.38
2023-04-02T17:24:29.231Z,96970.53
2023-04-02T17:27:41.223Z,96970.72
2023-04-02T17:30:51.072Z,96941.41
2023-04-02T17:33:55.962Z,96975.78
2023-04-02T17:37:24.059Z,96976.84
2023-04-02T17:41:09.059Z,96991.09
2023-04-02T17:44:40.928Z,96987.00
2023-04-02T17:48:02.801Z,96969.09
2023-04-02T17:51:34.796Z,97003.25
2023-04-02T17:55:03.879Z,96984.56
2023-04-02T17:58:22.359Z,97025.50
2023-04-02T18:01:55.010Z,97037.53
2023-04-02T18:05:07.883Z,97026.19
2023-04-02T18:08:31.881Z,97040.16
2023-04-02T18:12:04.166Z,97045.28
2023-04-02T18:15:14.895Z,97049.56
2023-04-02T18:18:44.669Z,97056.47
2023-04-02T18:22:18.848Z,97065.75
2023-04-02T18:25:38.818Z,97052.16
2023-04-02T18:29:07.914Z,97077.56
2023-04-02T18:32:54.177Z,97086.31
2023-04-02T18:36:18.944Z,97056.44
2023-04-02T18:39:40.908Z,97100.09
2023-04-02T18:43:15.456Z,97107.00
2023-04-02T18:46:54.856Z,97103.56
2023-04-02T18:50:12.265Z,97114.69
2023-04-02T18:53:19.392Z,97095.84
2023-04-02T18:56:24.600Z,97117.22
2023-04-02T18:59:44.807Z,97150.59
2023-04-02T19:02:56.849Z,97150.59
2023-04-02T19:06:09.008Z,97160.84
2023-04-02T19:09:19.038Z,97145.47
2023-04-02T19:12:24.168Z,97135.25
2023-04-02T19:15:39.517Z,97137.81
2023-04-02T19:19:00.337Z,97148.94
2023-04-02T19:22:16.894Z,97176.28
2023-04-02T19:25:34.733Z,97167.72
2023-04-02T19:28:55.085Z,97169.41
2023-04-02T19:32:02.609Z,97190.78
2023-04-02T19:35:27.095Z,97191.66
2023-04-02T19:38:37.636Z,97209.63
2023-04-02T19:41:53.526Z,97198.47
2023-04-02T19:44:58.192Z,97221.56
2023-04-02T19:48:10.790Z,97201.06
2023-04-02T19:51:15.450Z,97237.00
2023-04-02T19:54:20.130Z,97239.53
2023-04-02T19:57:24.735Z,97236.97
2023-04-02T20:00:29.487Z,97249.81
2023-04-02T20:03:34.101Z,97257.50
2023-04-02T20:06:38.800Z,97247.25
2023-04-02T20:09:43.282Z,97220.72
2023-04-02T20:12:47.823Z,97251.53
2023-04-02T20:15:52.478Z,97241.25
2023-04-02T20:18:57.633Z,97267.75
2023-04-02T20:22:02.489Z,97272.91
2023-04-02T20:25:07.649Z,97281.47
2023-04-02T20:28:12.506Z,97288.31
2023-04-02T20:31:18.644Z,97288.28
2023-04-02T20:34:23.725Z,97284.00
2023-04-02T20:37:29.033Z,97278.81
2023-04-02T20:40:33.863Z,97265.13
2023-04-02T20:43:40.508Z,97302.78
2023-04-02T20:46:45.432Z,97304.47
2023-04-02T20:49:50.593Z,97288.16
2023-04-02T20:52:55.261Z,97314.66
2023-04-02T20:56:10.145Z,97314.63
2023-04-02T20:59:14.696Z,97319.88
2023-04-02T21:02:19.252Z,97293.41
2023-04-02T21:05:23.826Z,97305.28
2023-04-02T21:08:28.632Z,97325.03
2023-04-02T21:11:33.635Z,97322.44
2023-04-02T21:14:39.810Z,97330.88
2023-04-02T21:17:44.949Z,97326.63
2023-04-02T21:21:04.903Z,97325.81
2023-04-02T21:24:09.942Z,97326.69
2023-04-02T21:27:14.645Z,97334.38
2023-04-02T21:30:19.418Z,97336.03
2023-04-02T21:33:24.108Z,97332.75
2023-04-02T21:36:31.506Z,97337.88
2023-04-02T21:39:36.334Z,97341.13
2023-04-02T21:42:41.126Z,97340.22
2023-04-02T21:45:45.760Z,97342.88
2023-04-02T21:48:51.390Z,97346.28
2023-04-02T21:51:55.874Z,97345.59
2023-04-02T21:55:00.423Z,97346.34
2023-04-02T21:58:05.041Z,97346.34
2023-04-02T22:01:16.834Z,97321.47
2023-04-02T22:04:30.654Z,97357.44
2023-04-02T22:07:35.328Z,97356.56
2023-04-02T22:10:39.943Z,97368.72
2023-04-02T22:13:46.714Z,97366.03
2023-04-02T22:16:51.996Z,97354.09
2023-04-02T22:19:56.663Z,97372.13
2023-04-02T22:23:01.211Z,97379.00
2023-04-02T22:26:07.641Z,97374.56
2023-04-02T22:29:12.156Z,97374.50
2023-04-02T22:32:16.729Z,97368.63
2023-04-02T22:35:21.407Z,97367.78
2023-04-02T22:38:26.119Z,97352.34
2023-04-02T22:41:31.942Z,97332.66
2023-04-02T22:44:36.486Z,97366.81
2023-04-02T22:47:41.238Z,97336.81
2023-04-02T22:50:50.123Z,97337.69
2023-04-02T22:53:56.222Z,97361.59
2023-04-02T22:57:01.025Z,97336.03
2023-04-02T23:00:09.967Z,97368.53
2023-04-02T23:03:14.553Z,97367.69
2023-04-02T23:06:19.164Z,97363.47
2023-04-02T23:09:23.658Z,97345.41
2023-04-02T23:12:28.221Z,97362.47
2023-04-02T23:15:33.045Z,97372.03
2023-04-02T23:18:38.585Z,97380.31
2023-04-02T23:21:43.206Z,97383.75
2023-04-02T23:24:47.897Z,97386.50
2023-04-02T23:27:52.814Z,97384.00
2023-04-02T23:30:57.506Z,97378.78
2023-04-02T23:34:02.058Z,97377.19
2023-04-02T23:37:06.888Z,97377.06
2023-04-02T23:40:11.531Z,97384.78
2023-04-02T23:43:16.140Z,97378.03
2023-04-02T23:46:21.050Z,97365.94
2023-04-02T23:49:28.057Z,97378.06
2023-04-02T23:52:32.875Z,97353.22
2023-04-02T23:55:37.611Z,97346.41
2023-04-02T23:58:42.239Z,97378.94
